sensor_id;sensor_type;location;lat;lon;timestamp;temperature;humidity
62464;SHT31;48512;48.552;9.380;2023-10-31T00:00:06;11.48;89.82
62464;SHT31;48512;48.552;9.380;2023-10-31T00:02:38;11.51;90.64
62464;SHT31;48512;48.552;9.380;2023-10-31T00:05:05;11.56;88.26
62464;SHT31;48512;48.552;9.380;2023-10-31T00:07:31;11.65;88.01
62464;SHT31;48512;48.552;9.380;2023-10-31T00:09:57;11.63;89.18
62464;SHT31;48512;48.552;9.380;2023-10-31T00:12:23;11.63;87.61
62464;SHT31;48512;48.552;9.380;2023-10-31T00:14:49;11.66;88.31
62464;SHT31;48512;48.552;9.380;2023-10-31T00:17:15;11.65;88.37
62464;SHT31;48512;48.552;9.380;2023-10-31T00:19:41;11.65;88.38
62464;SHT31;48512;48.552;9.380;2023-10-31T00:22:07;11.65;88.87
62464;SHT31;48512;48.552;9.380;2023-10-31T00:24:33;11.66;89.98
62464;SHT31;48512;48.552;9.380;2023-10-31T00:26:59;11.65;89.36
62464;SHT31;48512;48.552;9.380;2023-10-31T00:29:25;11.65;90.30
62464;SHT31;48512;48.552;9.380;2023-10-31T00:31:51;11.67;89.73
62464;SHT31;48512;48.552;9.380;2023-10-31T00:34:17;11.69;88.49
62464;SHT31;48512;48.552;9.380;2023-10-31T00:36:44;11.76;87.13
62464;SHT31;48512;48.552;9.380;2023-10-31T00:39:10;11.77;87.26
62464;SHT31;48512;48.552;9.380;2023-10-31T00:41:38;11.77;87.43
62464;SHT31;48512;48.552;9.380;2023-10-31T00:44:05;11.82;89.16
62464;SHT31;48512;48.552;9.380;2023-10-31T00:46:31;11.56;88.73
62464;SHT31;48512;48.552;9.380;2023-10-31T00:48:57;11.42;90.19
62464;SHT31;48512;48.552;9.380;2023-10-31T00:51:23;11.38;90.40
62464;SHT31;48512;48.552;9.380;2023-10-31T00:53:49;11.34;90.88
62464;SHT31;48512;48.552;9.380;2023-10-31T00:56:15;11.34;89.88
62464;SHT31;48512;48.552;9.380;2023-10-31T00:58:41;11.28;89.87
62464;SHT31;48512;48.552;9.380;2023-10-31T01:01:07;11.18;89.15
62464;SHT31;48512;48.552;9.380;2023-10-31T01:03:33;11.19;90.14
62464;SHT31;48512;48.552;9.380;2023-10-31T01:06:00;11.14;90.41
62464;SHT31;48512;48.552;9.380;2023-10-31T01:08:26;11.17;90.64
62464;SHT31;48512;48.552;9.380;2023-10-31T01:10:52;11.10;91.17
62464;SHT31;48512;48.552;9.380;2023-10-31T01:13:18;11.01;91.51
62464;SHT31;48512;48.552;9.380;2023-10-31T01:15:45;11.00;91.38
62464;SHT31;48512;48.552;9.380;2023-10-31T01:18:11;10.97;91.39
62464;SHT31;48512;48.552;9.380;2023-10-31T01:20:37;10.93;90.42
62464;SHT31;48512;48.552;9.380;2023-10-31T01:23:04;10.94;90.57
62464;SHT31;48512;48.552;9.380;2023-10-31T01:25:30;10.85;91.39
62464;SHT31;48512;48.552;9.380;2023-10-31T01:27:57;10.76;90.97
62464;SHT31;48512;48.552;9.380;2023-10-31T01:30:23;10.69;91.67
62464;SHT31;48512;48.552;9.380;2023-10-31T01:32:49;10.62;92.80
62464;SHT31;48512;48.552;9.380;2023-10-31T01:35:16;10.60;92.66
62464;SHT31;48512;48.552;9.380;2023-10-31T01:37:42;10.60;92.71
62464;SHT31;48512;48.552;9.380;2023-10-31T01:40:12;10.60;92.92
62464;SHT31;48512;48.552;9.380;2023-10-31T01:42:38;10.59;92.81
62464;SHT31;48512;48.552;9.380;2023-10-31T01:45:05;10.55;92.54
62464;SHT31;48512;48.552;9.380;2023-10-31T01:47:33;10.52;92.81
62464;SHT31;48512;48.552;9.380;2023-10-31T01:50:00;10.49;91.83
62464;SHT31;48512;48.552;9.380;2023-10-31T01:52:26;10.52;92.31
62464;SHT31;48512;48.552;9.380;2023-10-31T01:54:53;10.53;92.66
62464;SHT31;48512;48.552;9.380;2023-10-31T01:57:21;10.55;93.26
62464;SHT31;48512;48.552;9.380;2023-10-31T01:59:48;10.52;92.32
62464;SHT31;48512;48.552;9.380;2023-10-31T02:02:15;10.60;93.03
62464;SHT31;48512;48.552;9.380;2023-10-31T02:04:41;10.63;93.59
62464;SHT31;48512;48.552;9.380;2023-10-31T02:07:07;10.62;92.65
62464;SHT31;48512;48.552;9.380;2023-10-31T02:09:33;10.60;92.26
62464;SHT31;48512;48.552;9.380;2023-10-31T02:11:59;10.62;91.85
62464;SHT31;48512;48.552;9.380;2023-10-31T02:14:25;10.62;91.85
62464;SHT31;48512;48.552;9.380;2023-10-31T02:16:51;10.63;92.06
62464;SHT31;48512;48.552;9.380;2023-10-31T02:19:19;10.66;92.55
62464;SHT31;48512;48.552;9.380;2023-10-31T02:21:46;10.63;92.82
62464;SHT31;48512;48.552;9.380;2023-10-31T02:24:12;10.67;92.46
62464;SHT31;48512;48.552;9.380;2023-10-31T02:26:38;10.63;92.57
62464;SHT31;48512;48.552;9.380;2023-10-31T02:29:04;10.63;92.79
62464;SHT31;48512;48.552;9.380;2023-10-31T02:31:31;10.69;91.72
62464;SHT31;48512;48.552;9.380;2023-10-31T02:33:57;10.70;92.01
62464;SHT31;48512;48.552;9.380;2023-10-31T02:36:23;10.62;92.93
62464;SHT31;48512;48.552;9.380;2023-10-31T02:38:49;10.56;93.35
62464;SHT31;48512;48.552;9.380;2023-10-31T02:41:16;10.56;93.28
62464;SHT31;48512;48.552;9.380;2023-10-31T02:43:42;10.62;92.80
62464;SHT31;48512;48.552;9.380;2023-10-31T02:46:08;10.59;91.48
62464;SHT31;48512;48.552;9.380;2023-10-31T02:48:38;10.59;91.72
62464;SHT31;48512;48.552;9.380;2023-10-31T02:51:07;10.56;92.00
62464;SHT31;48512;48.552;9.380;2023-10-31T02:53:34;10.53;90.89
62464;SHT31;48512;48.552;9.380;2023-10-31T02:56:00;10.56;90.86
62464;SHT31;48512;48.552;9.380;2023-10-31T02:58:26;10.60;91.12
62464;SHT31;48512;48.552;9.380;2023-10-31T03:00:53;10.63;91.20
62464;SHT31;48512;48.552;9.380;2023-10-31T03:03:19;10.53;90.54
62464;SHT31;48512;48.552;9.380;2023-10-31T03:05:45;10.57;91.17
62464;SHT31;48512;48.552;9.380;2023-10-31T03:08:12;10.57;91.59
62464;SHT31;48512;48.552;9.380;2023-10-31T03:10:39;10.55;91.80
62464;SHT31;48512;48.552;9.380;2023-10-31T03:13:05;10.55;91.63
62464;SHT31;48512;48.552;9.380;2023-10-31T03:15:31;10.50;91.91
62464;SHT31;48512;48.552;9.380;2023-10-31T03:17:57;10.55;91.93
62464;SHT31;48512;48.552;9.380;2023-10-31T03:20:23;10.57;92.36
62464;SHT31;48512;48.552;9.380;2023-10-31T03:22:49;10.56;91.98
62464;SHT31;48512;48.552;9.380;2023-10-31T03:25:16;10.52;93.12
62464;SHT31;48512;48.552;9.380;2023-10-31T03:27:42;10.55;92.63
62464;SHT31;48512;48.552;9.380;2023-10-31T03:30:08;10.53;92.55
62464;SHT31;48512;48.552;9.380;2023-10-31T03:32:35;10.52;93.17
62464;SHT31;48512;48.552;9.380;2023-10-31T03:35:01;10.49;92.41
62464;SHT31;48512;48.552;9.380;2023-10-31T03:37:27;10.46;92.31
62464;SHT31;48512;48.552;9.380;2023-10-31T03:39:53;10.43;92.08
62464;SHT31;48512;48.552;9.380;2023-10-31T03:42:19;10.48;91.98
62464;SHT31;48512;48.552;9.380;2023-10-31T03:44:45;10.43;92.44
62464;SHT31;48512;48.552;9.380;2023-10-31T03:47:13;10.43;92.25
62464;SHT31;48512;48.552;9.380;2023-10-31T03:49:39;10.43;92.50
62464;SHT31;48512;48.552;9.380;2023-10-31T03:52:06;10.39;92.97
62464;SHT31;48512;48.552;9.380;2023-10-31T03:54:32;10.38;92.63
62464;SHT31;48512;48.552;9.380;2023-10-31T03:56:58;10.28;90.58
62464;SHT31;48512;48.552;9.380;2023-10-31T03:59:24;10.24;91.18
62464;SHT31;48512;48.552;9.380;2023-10-31T04:01:51;10.22;92.16
62464;SHT31;48512;48.552;9.380;2023-10-31T04:04:17;10.16;91.22
62464;SHT31;48512;48.552;9.380;2023-10-31T04:06:43;10.15;91.27
62464;SHT31;48512;48.552;9.380;2023-10-31T04:09:10;10.15;92.48
62464;SHT31;48512;48.552;9.380;2023-10-31T04:11:36;10.21;92.47
62464;SHT31;48512;48.552;9.380;2023-10-31T04:14:02;10.19;92.81
62464;SHT31;48512;48.552;9.380;2023-10-31T04:16:29;10.21;93.21
62464;SHT31;48512;48.552;9.380;2023-10-31T04:18:56;10.15;93.10
62464;SHT31;48512;48.552;9.380;2023-10-31T04:21:22;10.18;93.35
62464;SHT31;48512;48.552;9.380;2023-10-31T04:23:48;10.21;93.57
62464;SHT31;48512;48.552;9.380;2023-10-31T04:26:14;10.21;92.63
62464;SHT31;48512;48.552;9.380;2023-10-31T04:28:41;10.18;92.57
62464;SHT31;48512;48.552;9.380;2023-10-31T04:31:07;10.16;93.56
62464;SHT31;48512;48.552;9.380;2023-10-31T04:33:33;10.15;92.60
62464;SHT31;48512;48.552;9.380;2023-10-31T04:35:59;10.11;92.54
62464;SHT31;48512;48.552;9.380;2023-10-31T04:38:28;10.12;92.56
62464;SHT31;48512;48.552;9.380;2023-10-31T04:40:54;10.09;92.53
62464;SHT31;48512;48.552;9.380;2023-10-31T04:43:20;10.11;92.30
62464;SHT31;48512;48.552;9.380;2023-10-31T04:45:46;10.15;92.57
62464;SHT31;48512;48.552;9.380;2023-10-31T04:48:13;10.12;91.75
62464;SHT31;48512;48.552;9.380;2023-10-31T04:50:39;10.09;92.29
62464;SHT31;48512;48.552;9.380;2023-10-31T04:53:07;10.18;92.49
62464;SHT31;48512;48.552;9.380;2023-10-31T04:55:33;10.15;91.94
62464;SHT31;48512;48.552;9.380;2023-10-31T04:57:59;10.14;93.08
62464;SHT31;48512;48.552;9.380;2023-10-31T05:00:25;10.08;92.61
62464;SHT31;48512;48.552;9.380;2023-10-31T05:02:51;10.09;92.25
62464;SHT31;48512;48.552;9.380;2023-10-31T05:05:17;10.06;91.89
62464;SHT31;48512;48.552;9.380;2023-10-31T05:07:43;10.06;91.71
62464;SHT31;48512;48.552;9.380;2023-10-31T05:10:09;10.04;91.29
62464;SHT31;48512;48.552;9.380;2023-10-31T05:12:36;10.06;91.15
62464;SHT31;48512;48.552;9.380;2023-10-31T05:15:02;10.02;91.14
62464;SHT31;48512;48.552;9.380;2023-10-31T05:17:28;10.02;91.71
62464;SHT31;48512;48.552;9.380;2023-10-31T05:19:54;9.99;92.11
62464;SHT31;48512;48.552;9.380;2023-10-31T05:22:20;9.97;91.90
62464;SHT31;48512;48.552;9.380;2023-10-31T05:24:46;10.01;91.10
62464;SHT31;48512;48.552;9.380;2023-10-31T05:27:13;9.95;90.84
62464;SHT31;48512;48.552;9.380;2023-10-31T05:29:40;9.93;90.88
62464;SHT31;48512;48.552;9.380;2023-10-31T05:32:06;9.90;91.27
62464;SHT31;48512;48.552;9.380;2023-10-31T05:34:32;9.90;91.20
62464;SHT31;48512;48.552;9.380;2023-10-31T05:36:58;9.91;91.49
62464;SHT31;48512;48.552;9.380;2023-10-31T05:39:24;9.90;91.25
62464;SHT31;48512;48.552;9.380;2023-10-31T05:41:50;9.88;90.14
62464;SHT31;48512;48.552;9.380;2023-10-31T05:44:16;9.84;90.64
62464;SHT31;48512;48.552;9.380;2023-10-31T05:46:43;9.84;90.49
62464;SHT31;48512;48.552;9.380;2023-10-31T05:49:09;9.78;90.76
62464;SHT31;48512;48.552;9.380;2023-10-31T05:51:36;9.80;90.60
62464;SHT31;48512;48.552;9.380;2023-10-31T05:54:02;9.81;90.94
62464;SHT31;48512;48.552;9.380;2023-10-31T05:56:28;9.80;91.61
62464;SHT31;48512;48.552;9.380;2023-10-31T05:58:54;9.78;92.07
62464;SHT31;48512;48.552;9.380;2023-10-31T06:01:20;9.78;91.29
62464;SHT31;48512;48.552;9.380;2023-10-31T06:03:46;9.73;91.66
62464;SHT31;48512;48.552;9.380;2023-10-31T06:06:12;9.71;91.83
62464;SHT31;48512;48.552;9.380;2023-10-31T06:08:39;9.77;92.45
62464;SHT31;48512;48.552;9.380;2023-10-31T06:11:06;9.80;91.59
62464;SHT31;48512;48.552;9.380;2023-10-31T06:13:33;9.78;91.80
62464;SHT31;48512;48.552;9.380;2023-10-31T06:16:00;9.80;91.33
62464;SHT31;48512;48.552;9.380;2023-10-31T06:18:27;9.78;90.16
62464;SHT31;48512;48.552;9.380;2023-10-31T06:20:53;9.80;90.32
62464;SHT31;48512;48.552;9.380;2023-10-31T06:23:19;9.74;90.27
62464;SHT31;48512;48.552;9.380;2023-10-31T06:25:45;9.73;90.74
62464;SHT31;48512;48.552;9.380;2023-10-31T06:28:12;9.69;91.03
62464;SHT31;48512;48.552;9.380;2023-10-31T06:30:38;9.73;90.26
62464;SHT31;48512;48.552;9.380;2023-10-31T06:33:04;9.70;89.69
62464;SHT31;48512;48.552;9.380;2023-10-31T06:35:30;9.69;89.73
62464;SHT31;48512;48.552;9.380;2023-10-31T06:37:56;9.73;89.65
62464;SHT31;48512;48.552;9.380;2023-10-31T06:40:24;9.69;90.10
62464;SHT31;48512;48.552;9.380;2023-10-31T06:42:51;9.63;89.75
62464;SHT31;48512;48.552;9.380;2023-10-31T06:45:17;9.67;89.71
62464;SHT31;48512;48.552;9.380;2023-10-31T06:47:43;9.67;89.49
62464;SHT31;48512;48.552;9.380;2023-10-31T06:50:09;9.67;89.45
62464;SHT31;48512;48.552;9.380;2023-10-31T06:52:35;9.70;89.88
62464;SHT31;48512;48.552;9.380;2023-10-31T06:55:01;9.71;89.13
62464;SHT31;48512;48.552;9.380;2023-10-31T06:57:28;9.76;89.03
62464;SHT31;48512;48.552;9.380;2023-10-31T06:59:54;9.74;88.78
62464;SHT31;48512;48.552;9.380;2023-10-31T07:02:21;9.69;88.80
62464;SHT31;48512;48.552;9.380;2023-10-31T07:04:47;9.71;87.94
62464;SHT31;48512;48.552;9.380;2023-10-31T07:07:13;9.81;88.42
62464;SHT31;48512;48.552;9.380;2023-10-31T07:09:39;9.84;88.57
62464;SHT31;48512;48.552;9.380;2023-10-31T07:12:05;9.83;88.84
62464;SHT31;48512;48.552;9.380;2023-10-31T07:14:32;9.80;87.47
62464;SHT31;48512;48.552;9.380;2023-10-31T07:16:58;9.84;87.87
62464;SHT31;48512;48.552;9.380;2023-10-31T07:19:24;9.84;87.89
62464;SHT31;48512;48.552;9.380;2023-10-31T07:21:50;9.88;87.87
62464;SHT31;48512;48.552;9.380;2023-10-31T07:24:16;9.93;86.99
62464;SHT31;48512;48.552;9.380;2023-10-31T07:26:42;9.99;86.73
62464;SHT31;48512;48.552;9.380;2023-10-31T07:29:09;10.04;86.42
62464;SHT31;48512;48.552;9.380;2023-10-31T07:31:35;10.04;86.99
62464;SHT31;48512;48.552;9.380;2023-10-31T07:34:07;10.04;86.12
62464;SHT31;48512;48.552;9.380;2023-10-31T07:36:34;10.08;86.55
62464;SHT31;48512;48.552;9.380;2023-10-31T07:39:01;10.05;86.01
62464;SHT31;48512;48.552;9.380;2023-10-31T07:41:28;10.08;85.60
62464;SHT31;48512;48.552;9.380;2023-10-31T07:43:54;10.16;85.88
62464;SHT31;48512;48.552;9.380;2023-10-31T07:46:20;10.21;85.77
62464;SHT31;48512;48.552;9.380;2023-10-31T07:48:47;10.24;85.87
62464;SHT31;48512;48.552;9.380;2023-10-31T07:51:13;10.28;86.74
62464;SHT31;48512;48.552;9.380;2023-10-31T07:53:39;10.26;84.59
62464;SHT31;48512;48.552;9.380;2023-10-31T07:56:05;10.33;83.60
62464;SHT31;48512;48.552;9.380;2023-10-31T07:58:39;10.32;84.08
62464;SHT31;48512;48.552;9.380;2023-10-31T08:01:06;10.31;83.41
62464;SHT31;48512;48.552;9.380;2023-10-31T08:03:36;10.32;83.74
62464;SHT31;48512;48.552;9.380;2023-10-31T08:06:05;10.38;83.32
62464;SHT31;48512;48.552;9.380;2023-10-31T08:08:31;10.38;83.64
62464;SHT31;48512;48.552;9.380;2023-10-31T08:10:57;10.45;83.61
62464;SHT31;48512;48.552;9.380;2023-10-31T08:13:24;10.52;83.42
62464;SHT31;48512;48.552;9.380;2023-10-31T08:15:50;10.49;82.83
62464;SHT31;48512;48.552;9.380;2023-10-31T08:18:17;10.50;81.88
62464;SHT31;48512;48.552;9.380;2023-10-31T08:20:43;10.55;82.09
62464;SHT31;48512;48.552;9.380;2023-10-31T08:23:12;10.56;82.84
62464;SHT31;48512;48.552;9.380;2023-10-31T08:25:38;10.60;82.86
62464;SHT31;48512;48.552;9.380;2023-10-31T08:28:04;10.67;83.04
62464;SHT31;48512;48.552;9.380;2023-10-31T08:30:30;10.73;82.83
62464;SHT31;48512;48.552;9.380;2023-10-31T08:32:56;10.79;83.74
62464;SHT31;48512;48.552;9.380;2023-10-31T08:35:22;10.83;83.82
62464;SHT31;48512;48.552;9.380;2023-10-31T08:37:48;10.90;82.51
62464;SHT31;48512;48.552;9.380;2023-10-31T08:40:14;10.94;82.61
62464;SHT31;48512;48.552;9.380;2023-10-31T08:42:40;11.00;82.40
62464;SHT31;48512;48.552;9.380;2023-10-31T08:45:08;11.08;81.19
62464;SHT31;48512;48.552;9.380;2023-10-31T08:47:34;11.15;81.68
62464;SHT31;48512;48.552;9.380;2023-10-31T08:50:03;11.27;82.09
62464;SHT31;48512;48.552;9.380;2023-10-31T08:52:29;11.36;81.75
62464;SHT31;48512;48.552;9.380;2023-10-31T08:54:55;11.35;80.22
62464;SHT31;48512;48.552;9.380;2023-10-31T08:57:22;11.45;80.33
62464;SHT31;48512;48.552;9.380;2023-10-31T08:59:48;11.51;79.78
62464;SHT31;48512;48.552;9.380;2023-10-31T09:02:15;11.61;80.27
62464;SHT31;48512;48.552;9.380;2023-10-31T09:04:41;11.65;78.98
62464;SHT31;48512;48.552;9.380;2023-10-31T09:07:07;11.77;79.80
62464;SHT31;48512;48.552;9.380;2023-10-31T09:09:33;11.97;79.79
62464;SHT31;48512;48.552;9.380;2023-10-31T09:11:59;12.04;77.98
62464;SHT31;48512;48.552;9.380;2023-10-31T09:14:25;12.07;78.39
62464;SHT31;48512;48.552;9.380;2023-10-31T09:16:51;12.03;77.58
62464;SHT31;48512;48.552;9.380;2023-10-31T09:19:17;12.18;77.40
62464;SHT31;48512;48.552;9.380;2023-10-31T09:21:43;12.27;76.67
62464;SHT31;48512;48.552;9.380;2023-10-31T09:24:10;12.45;76.57
62464;SHT31;48512;48.552;9.380;2023-10-31T09:26:36;12.45;76.23
62464;SHT31;48512;48.552;9.380;2023-10-31T09:29:03;12.68;77.12
62464;SHT31;48512;48.552;9.380;2023-10-31T09:31:29;12.76;76.71
62464;SHT31;48512;48.552;9.380;2023-10-31T09:33:55;12.78;74.32
62464;SHT31;48512;48.552;9.380;2023-10-31T09:36:21;12.86;74.23
62464;SHT31;48512;48.552;9.380;2023-10-31T09:38:47;13.09;75.38
62464;SHT31;48512;48.552;9.380;2023-10-31T09:41:13;13.13;74.47
62464;SHT31;48512;48.552;9.380;2023-10-31T09:43:40;13.20;73.24
62464;SHT31;48512;48.552;9.380;2023-10-31T09:46:08;13.43;73.90
62464;SHT31;48512;48.552;9.380;2023-10-31T09:48:35;13.64;73.65
62464;SHT31;48512;48.552;9.380;2023-10-31T09:51:02;13.71;73.00
62464;SHT31;48512;48.552;9.380;2023-10-31T09:53:29;13.82;72.27
62464;SHT31;48512;48.552;9.380;2023-10-31T09:55:56;13.78;72.23
62464;SHT31;48512;48.552;9.380;2023-10-31T09:58:23;13.79;72.22
62464;SHT31;48512;48.552;9.380;2023-10-31T10:00:49;13.61;73.14
62464;SHT31;48512;48.552;9.380;2023-10-31T10:03:16;13.43;72.68
62464;SHT31;48512;48.552;9.380;2023-10-31T10:05:44;13.34;72.74
62464;SHT31;48512;48.552;9.380;2023-10-31T10:08:11;13.33;73.39
62464;SHT31;48512;48.552;9.380;2023-10-31T10:10:37;13.28;73.32
62464;SHT31;48512;48.552;9.380;2023-10-31T10:13:03;13.18;73.51
62464;SHT31;48512;48.552;9.380;2023-10-31T10:15:30;13.23;74.09
62464;SHT31;48512;48.552;9.380;2023-10-31T10:17:56;13.36;73.83
62464;SHT31;48512;48.552;9.380;2023-10-31T10:20:22;13.41;72.93
62464;SHT31;48512;48.552;9.380;2023-10-31T10:22:48;13.44;73.38
62464;SHT31;48512;48.552;9.380;2023-10-31T10:25:16;13.40;73.74
62464;SHT31;48512;48.552;9.380;2023-10-31T10:27:43;13.41;73.48
62464;SHT31;48512;48.552;9.380;2023-10-31T10:30:11;13.38;73.57
62464;SHT31;48512;48.552;9.380;2023-10-31T10:32:38;13.34;73.46
62464;SHT31;48512;48.552;9.380;2023-10-31T10:35:05;13.30;73.84
62464;SHT31;48512;48.552;9.380;2023-10-31T10:37:32;13.16;72.94
62464;SHT31;48512;48.552;9.380;2023-10-31T10:40:00;13.06;74.34
62464;SHT31;48512;48.552;9.380;2023-10-31T10:42:32;13.13;75.13
62464;SHT31;48512;48.552;9.380;2023-10-31T10:45:02;13.04;74.20
62464;SHT31;48512;48.552;9.380;2023-10-31T10:47:31;13.11;73.91
62464;SHT31;48512;48.552;9.380;2023-10-31T10:50:01;13.21;75.56
62464;SHT31;48512;48.552;9.380;2023-10-31T10:52:30;13.20;74.59
62464;SHT31;48512;48.552;9.380;2023-10-31T10:55:25;13.27;74.53
62464;SHT31;48512;48.552;9.380;2023-10-31T10:58:01;13.27;74.94
62464;SHT31;48512;48.552;9.380;2023-10-31T11:00:29;13.27;75.25
62464;SHT31;48512;48.552;9.380;2023-10-31T11:02:56;13.21;75.53
62464;SHT31;48512;48.552;9.380;2023-10-31T11:05:25;13.18;74.93
62464;SHT31;48512;48.552;9.380;2023-10-31T11:07:53;13.03;75.09
62464;SHT31;48512;48.552;9.380;2023-10-31T11:10:21;12.73;75.48
62464;SHT31;48512;48.552;9.380;2023-10-31T11:12:47;12.59;76.16
62464;SHT31;48512;48.552;9.380;2023-10-31T11:15:15;12.72;76.51
62464;SHT31;48512;48.552;9.380;2023-10-31T11:17:44;12.78;76.62
62464;SHT31;48512;48.552;9.380;2023-10-31T11:20:11;12.89;76.44
62464;SHT31;48512;48.552;9.380;2023-10-31T11:22:44;13.03;76.55
62464;SHT31;48512;48.552;9.380;2023-10-31T11:25:17;13.09;76.04
62464;SHT31;48512;48.552;9.380;2023-10-31T11:27:46;13.06;75.98
62464;SHT31;48512;48.552;9.380;2023-10-31T11:30:28;12.86;76.34
62464;SHT31;48512;48.552;9.380;2023-10-31T11:32:58;12.96;76.57
62464;SHT31;48512;48.552;9.380;2023-10-31T11:35:24;12.96;76.34
62464;SHT31;48512;48.552;9.380;2023-10-31T11:38:07;12.86;76.04
62464;SHT31;48512;48.552;9.380;2023-10-31T11:40:36;12.88;76.46
62464;SHT31;48512;48.552;9.380;2023-10-31T11:43:05;12.93;76.30
62464;SHT31;48512;48.552;9.380;2023-10-31T11:45:42;13.02;76.22
62464;SHT31;48512;48.552;9.380;2023-10-31T11:48:10;13.13;76.94
62464;SHT31;48512;48.552;9.380;2023-10-31T11:50:37;13.09;76.29
62464;SHT31;48512;48.552;9.380;2023-10-31T11:53:08;13.11;76.02
62464;SHT31;48512;48.552;9.380;2023-10-31T11:55:42;13.17;76.72
62464;SHT31;48512;48.552;9.380;2023-10-31T11:58:23;13.14;75.94
62464;SHT31;48512;48.552;9.380;2023-10-31T12:00:52;13.03;76.39
62464;SHT31;48512;48.552;9.380;2023-10-31T12:03:20;13.03;76.68
62464;SHT31;48512;48.552;9.380;2023-10-31T12:05:59;13.02;76.54
62464;SHT31;48512;48.552;9.380;2023-10-31T12:08:30;13.09;76.95
62464;SHT31;48512;48.552;9.380;2023-10-31T12:11:09;13.14;76.14
62464;SHT31;48512;48.552;9.380;2023-10-31T12:13:37;13.14;75.92
62464;SHT31;48512;48.552;9.380;2023-10-31T12:16:05;13.18;76.00
62464;SHT31;48512;48.552;9.380;2023-10-31T12:18:36;13.21;76.96
62464;SHT31;48512;48.552;9.380;2023-10-31T12:21:03;13.14;77.16
62464;SHT31;48512;48.552;9.380;2023-10-31T12:23:29;13.16;77.23
62464;SHT31;48512;48.552;9.380;2023-10-31T12:25:55;13.28;78.08
62464;SHT31;48512;48.552;9.380;2023-10-31T12:28:24;13.38;76.85
62464;SHT31;48512;48.552;9.380;2023-10-31T12:30:52;13.45;77.21
62464;SHT31;48512;48.552;9.380;2023-10-31T12:33:24;13.38;75.99
62464;SHT31;48512;48.552;9.380;2023-10-31T12:35:52;13.17;76.60
62464;SHT31;48512;48.552;9.380;2023-10-31T12:38:22;13.23;76.52
62464;SHT31;48512;48.552;9.380;2023-10-31T12:40:48;13.30;77.01
62464;SHT31;48512;48.552;9.380;2023-10-31T12:43:15;13.28;77.32
62464;SHT31;48512;48.552;9.380;2023-10-31T12:45:42;13.18;76.61
62464;SHT31;48512;48.552;9.380;2023-10-31T12:48:09;13.10;76.37
62464;SHT31;48512;48.552;9.380;2023-10-31T12:50:37;13.06;77.01
62464;SHT31;48512;48.552;9.380;2023-10-31T12:53:04;13.00;76.32
62464;SHT31;48512;48.552;9.380;2023-10-31T12:55:31;13.09;77.15
62464;SHT31;48512;48.552;9.380;2023-10-31T12:58:02;13.14;77.21
62464;SHT31;48512;48.552;9.380;2023-10-31T13:00:34;13.24;78.19
62464;SHT31;48512;48.552;9.380;2023-10-31T13:05:30;13.26;75.66
62464;SHT31;48512;48.552;9.380;2023-10-31T13:07:57;13.33;76.75
62464;SHT31;48512;48.552;9.380;2023-10-31T13:10:24;13.30;77.16
62464;SHT31;48512;48.552;9.380;2023-10-31T13:12:51;13.31;75.92
62464;SHT31;48512;48.552;9.380;2023-10-31T13:15:19;13.31;75.95
62464;SHT31;48512;48.552;9.380;2023-10-31T13:17:45;13.28;75.72
62464;SHT31;48512;48.552;9.380;2023-10-31T13:20:13;13.28;76.71
62464;SHT31;48512;48.552;9.380;2023-10-31T13:22:41;13.26;76.25
62464;SHT31;48512;48.552;9.380;2023-10-31T13:25:09;13.26;76.22
62464;SHT31;48512;48.552;9.380;2023-10-31T13:27:39;13.31;76.20
62464;SHT31;48512;48.552;9.380;2023-10-31T13:30:12;13.37;76.15
62464;SHT31;48512;48.552;9.380;2023-10-31T13:32:40;13.38;77.07
62464;SHT31;48512;48.552;9.380;2023-10-31T13:35:09;13.45;76.87
62464;SHT31;48512;48.552;9.380;2023-10-31T13:37:39;13.50;76.71
62464;SHT31;48512;48.552;9.380;2023-10-31T13:40:07;13.74;75.64
62464;SHT31;48512;48.552;9.380;2023-10-31T13:42:37;13.85;74.86
62464;SHT31;48512;48.552;9.380;2023-10-31T13:45:03;13.82;74.96
62464;SHT31;48512;48.552;9.380;2023-10-31T13:47:30;13.85;75.06
62464;SHT31;48512;48.552;9.380;2023-10-31T13:49:56;13.87;75.67
62464;SHT31;48512;48.552;9.380;2023-10-31T13:52:23;13.86;77.14
62464;SHT31;48512;48.552;9.380;2023-10-31T13:54:49;13.76;76.27
62464;SHT31;48512;48.552;9.380;2023-10-31T13:57:15;13.72;77.45
62464;SHT31;48512;48.552;9.380;2023-10-31T13:59:41;13.58;77.63
62464;SHT31;48512;48.552;9.380;2023-10-31T14:02:07;13.55;77.14
62464;SHT31;48512;48.552;9.380;2023-10-31T14:04:34;13.54;76.00
62464;SHT31;48512;48.552;9.380;2023-10-31T14:07:00;13.55;76.76
62464;SHT31;48512;48.552;9.380;2023-10-31T14:09:26;13.54;78.32
62464;SHT31;48512;48.552;9.380;2023-10-31T14:11:52;13.44;78.96
62464;SHT31;48512;48.552;9.380;2023-10-31T14:14:18;13.37;80.24
62464;SHT31;48512;48.552;9.380;2023-10-31T14:16:46;13.30;80.89
62464;SHT31;48512;48.552;9.380;2023-10-31T14:19:12;13.24;81.80
62464;SHT31;48512;48.552;9.380;2023-10-31T14:21:39;13.16;81.56
62464;SHT31;48512;48.552;9.380;2023-10-31T14:24:06;13.10;81.97
62464;SHT31;48512;48.552;9.380;2023-10-31T14:26:34;13.03;81.98
62464;SHT31;48512;48.552;9.380;2023-10-31T14:29:04;12.99;82.28
62464;SHT31;48512;48.552;9.380;2023-10-31T14:31:30;12.92;82.35
62464;SHT31;48512;48.552;9.380;2023-10-31T14:33:56;12.88;81.32
62464;SHT31;48512;48.552;9.380;2023-10-31T14:36:23;12.86;81.61
62464;SHT31;48512;48.552;9.380;2023-10-31T14:38:49;12.80;81.29
62464;SHT31;48512;48.552;9.380;2023-10-31T14:41:15;12.79;81.67
62464;SHT31;48512;48.552;9.380;2023-10-31T14:43:41;12.73;81.50
62464;SHT31;48512;48.552;9.380;2023-10-31T14:46:08;12.69;81.58
62464;SHT31;48512;48.552;9.380;2023-10-31T14:48:34;12.62;80.47
62464;SHT31;48512;48.552;9.380;2023-10-31T14:51:00;12.62;80.87
62464;SHT31;48512;48.552;9.380;2023-10-31T14:53:28;12.63;80.75
62464;SHT31;48512;48.552;9.380;2023-10-31T14:55:54;12.63;80.36
62464;SHT31;48512;48.552;9.380;2023-10-31T14:58:20;12.70;80.40
62464;SHT31;48512;48.552;9.380;2023-10-31T15:00:46;12.75;79.75
62464;SHT31;48512;48.552;9.380;2023-10-31T15:03:13;12.80;79.51
62464;SHT31;48512;48.552;9.380;2023-10-31T15:05:39;12.75;81.53
62464;SHT31;48512;48.552;9.380;2023-10-31T15:08:05;12.68;79.86
62464;SHT31;48512;48.552;9.380;2023-10-31T15:10:32;12.61;79.82
62464;SHT31;48512;48.552;9.380;2023-10-31T15:12:58;12.62;79.48
62464;SHT31;48512;48.552;9.380;2023-10-31T15:15:25;12.56;78.71
62464;SHT31;48512;48.552;9.380;2023-10-31T15:17:51;12.56;79.72
62464;SHT31;48512;48.552;9.380;2023-10-31T15:20:18;12.52;80.15
62464;SHT31;48512;48.552;9.380;2023-10-31T15:22:44;12.51;80.08
62464;SHT31;48512;48.552;9.380;2023-10-31T15:25:10;12.49;81.28
62464;SHT31;48512;48.552;9.380;2023-10-31T15:27:37;12.42;79.60
62464;SHT31;48512;48.552;9.380;2023-10-31T15:30:06;12.37;79.79
62464;SHT31;48512;48.552;9.380;2023-10-31T15:32:34;12.32;79.97